»·PEaware :: N57PG KBUR-KPSP

N57PG :: KBUR-KPSP

FLIGHT INFORMATION

Flight Status: Arrived
Operator: Privately registered:
United States
More flights under this callsign
Pilot: Igor G. (1295)
Aircraft: CIRRUS VISIONJET
(SF50)
More flights by this aircraft type
Origin: KBUR Bob Hope-Burbank
United States
Destination: KPSP Palm Springs Intl
United States
More flights between these airports :: More routes between these airports
Route: +ELMOO9 ELMOO V186 NIKKL V64 TRM
File this flight plan on PilotEdge
Remarks:
Altitude:
(Current/Filed)
15,000ft
Speed:
(Current/Filed)
250kts
Departed: 18-Nov-20 05:53 PM
Arrived: 18-Nov-20 06:47 PM
Distance/Time
Traveled:
95nm/0:54
Distance/Time
To Go:
Arrived

Flight Plot

Page will automatically refresh every two minutes.

Flight plan parsing failed; only flown route is shown


Map Options




Map Legend


Flown Route
Filed Route
Departure Airport
Arrival Airport
Navaid (VOR, NDB)
Fix

Horizontal Profiles

Position Reports

Time Latitude Longitude Heading Altitude Ground
Speed
18-Nov-20 17:32 34.200209 -118.358857 0 721ft 0kts
18-Nov-20 17:33 34.200209 -118.358857 280 721ft 0kts
18-Nov-20 17:34 34.200209 -118.358857 280 721ft 0kts
18-Nov-20 17:35 34.200209 -118.358857 280 721ft 0kts
18-Nov-20 17:36 34.200209 -118.358857 280 721ft 0kts
18-Nov-20 17:37 34.200209 -118.358857 280 721ft 0kts
18-Nov-20 17:38 34.200209 -118.358857 280 722ft 0kts
18-Nov-20 17:39 34.200209 -118.358857 280 722ft 0kts
18-Nov-20 17:40 34.200209 -118.358857 280 722ft 0kts
18-Nov-20 17:41 34.200209 -118.358857 280 722ft 0kts
18-Nov-20 17:42 34.200209 -118.358857 280 722ft 0kts
18-Nov-20 17:43 34.200209 -118.358857 280 722ft 0kts
18-Nov-20 17:44 34.200209 -118.358881 262 722ft 0kts
18-Nov-20 17:45 34.199730 -118.358160 1 718ft 1kts
18-Nov-20 17:46 34.201599 -118.358656 346 727ft 8kts
18-Nov-20 17:47 34.203447 -118.359166 346 735ft 15kts
18-Nov-20 17:48 34.206342 -118.359959 347 744ft 14kts
18-Nov-20 17:49 34.209136 -118.360746 346 757ft 6kts
18-Nov-20 17:50 34.211387 -118.361353 6 768ft 2kts
18-Nov-20 17:51 34.211199 -118.360152 168 765ft 13kts
18-Nov-20 17:52 34.191749 -118.354766 167 1039ft 116kts
18-Nov-20 17:53 34.168324 -118.328925 127 2424ft 145kts
18-Nov-20 17:54 34.147921 -118.294281 125 3363ft 147kts
18-Nov-20 17:55 34.127637 -118.258455 124 4985ft 155kts
18-Nov-20 17:56 34.107705 -118.222759 123 6549ft 157kts
18-Nov-20 17:57 34.088951 -118.185205 118 7954ft 165kts
18-Nov-20 17:58 34.069470 -118.141610 118 9061ft 187kts
18-Nov-20 17:59 34.049386 -118.095737 117 10109ft 200kts
18-Nov-20 18:00 34.028343 -118.047516 117 11154ft 206kts
18-Nov-20 18:01 34.005905 -117.996165 117 12242ft 208kts
18-Nov-20 18:02 33.982634 -117.942975 117 13363ft 208kts
18-Nov-20 18:03 33.959268 -117.889662 117 14496ft 205kts
18-Nov-20 18:04 33.937247 -117.839490 117 14930ft 229kts
18-Nov-20 18:05 33.909468 -117.776310 117 14928ft 256kts
18-Nov-20 18:06 33.879855 -117.709091 117 14927ft 267kts
18-Nov-20 18:07 33.849235 -117.639703 117 14927ft 271kts
18-Nov-20 18:08 33.817157 -117.567170 117 14926ft 273kts
18-Nov-20 18:09 33.783565 -117.491376 117 14926ft 274kts
18-Nov-20 18:10 33.758094 -117.432840 117 14926ft 274kts
18-Nov-20 18:11 33.738190 -117.397731 126 14926ft 274kts
18-Nov-20 18:12 33.725358 -117.360689 93 14925ft 274kts
18-Nov-20 18:13 33.724296 -117.290039 94 14855ft 276kts
18-Nov-20 18:14 33.718749 -117.219779 95 14853ft 275kts
18-Nov-20 18:15 33.713206 -117.152565 95 14853ft 274kts
18-Nov-20 18:16 33.707472 -117.082527 95 14853ft 274kts
18-Nov-20 18:17 33.700874 -117.003080 95 14853ft 274kts
18-Nov-20 18:18 33.694336 -116.924648 95 14853ft 274kts
18-Nov-20 18:19 33.687617 -116.844477 95 14853ft 274kts
18-Nov-20 18:20 33.682069 -116.778815 95 14569ft 283kts
18-Nov-20 18:22 33.677260 -116.721747 95 13425ft 245kts
18-Nov-20 18:23 33.672310 -116.663612 95 11908ft 223kts
18-Nov-20 18:24 33.667259 -116.604809 95 10274ft 214kts
18-Nov-20 18:25 33.662471 -116.549379 95 8887ft 216kts
18-Nov-20 18:26 33.657238 -116.489090 95 8854ft 226kts
18-Nov-20 18:27 33.651639 -116.425018 95 8853ft 222kts
18-Nov-20 18:28 33.646497 -116.366487 95 7419ft 225kts
18-Nov-20 18:29 33.641621 -116.311415 96 6846ft 172kts
18-Nov-20 18:30 33.638078 -116.271555 96 6502ft 162kts
18-Nov-20 18:31 33.646093 -116.235883 28 4831ft 201kts
18-Nov-20 18:32 33.676144 -116.246671 314 3890ft 137kts
18-Nov-20 18:33 33.688252 -116.264183 306 3640ft 106kts
18-Nov-20 18:34 33.698947 -116.281910 305 3490ft 126kts
18-Nov-20 18:35 33.710892 -116.302242 305 3333ft 136kts
18-Nov-20 18:36 33.724278 -116.325147 305 3141ft 128kts
18-Nov-20 18:37 33.738895 -116.350182 305 2931ft 137kts
18-Nov-20 18:37 33.752247 -116.373072 305 2854ft 147kts
18-Nov-20 18:39 33.767177 -116.398970 304 2851ft 136kts
18-Nov-20 18:39 33.775689 -116.413738 305 2807ft 114kts
18-Nov-20 18:41 33.791161 -116.440047 304 1833ft 112kts
18-Nov-20 18:41 33.803601 -116.461866 305 884ft 104kts
18-Nov-20 18:43 33.815503 -116.482227 330 952ft 104kts
18-Nov-20 18:43 33.828100 -116.489587 325 905ft 101kts
18-Nov-20 18:44 33.841311 -116.502286 321 922ft 108kts
18-Nov-20 18:46 33.838808 -116.511533 165 595ft 74kts
18-Nov-20 18:46 33.831094 -116.506090 156 426ft 39kts

Navigation Log

Ident Type
Flight plan parsing failed, navigation log unavailable